sensor_id;sensor_type;location;lat;lon;timestamp;P1;durP1;ratioP1;P2;durP2;ratioP2
55811;SDS011;41742;52.048;6.092;2022-08-18T00:04:35;10.48;;;7.53;;
55811;SDS011;41742;52.048;6.092;2022-08-18T00:07:02;9.40;;;7.03;;
55811;SDS011;41742;52.048;6.092;2022-08-18T00:09:30;9.02;;;7.40;;
55811;SDS011;41742;52.048;6.092;2022-08-18T00:11:59;12.45;;;7.43;;
55811;SDS011;41742;52.048;6.092;2022-08-18T00:14:27;15.73;;;7.60;;
55811;SDS011;41742;52.048;6.092;2022-08-18T00:16:52;15.23;;;7.38;;
55811;SDS011;41742;52.048;6.092;2022-08-18T00:19:18;16.90;;;6.80;;
55811;SDS011;41742;52.048;6.092;2022-08-18T00:21:45;11.30;;;7.18;;
55811;SDS011;41742;52.048;6.092;2022-08-18T00:24:10;10.85;;;7.28;;
55811;SDS011;41742;52.048;6.092;2022-08-18T00:26:36;8.30;;;6.35;;
55811;SDS011;41742;52.048;6.092;2022-08-18T00:29:02;8.73;;;5.70;;
55811;SDS011;41742;52.048;6.092;2022-08-18T00:31:28;7.15;;;6.45;;
55811;SDS011;41742;52.048;6.092;2022-08-18T00:33:54;9.95;;;6.95;;
55811;SDS011;41742;52.048;6.092;2022-08-18T00:36:19;10.80;;;6.68;;
55811;SDS011;41742;52.048;6.092;2022-08-18T00:38:45;12.93;;;7.22;;
55811;SDS011;41742;52.048;6.092;2022-08-18T00:41:11;14.43;;;6.95;;
55811;SDS011;41742;52.048;6.092;2022-08-18T00:46:08;14.30;;;6.53;;
55811;SDS011;41742;52.048;6.092;2022-08-18T00:48:36;7.60;;;6.78;;
55811;SDS011;41742;52.048;6.092;2022-08-18T00:51:12;10.25;;;7.18;;
55811;SDS011;41742;52.048;6.092;2022-08-18T00:53:44;12.93;;;7.72;;
55811;SDS011;41742;52.048;6.092;2022-08-18T00:56:15;9.45;;;6.80;;
55811;SDS011;41742;52.048;6.092;2022-08-18T00:58:48;10.43;;;7.23;;
55811;SDS011;41742;52.048;6.092;2022-08-18T01:01:20;9.13;;;7.30;;
55811;SDS011;41742;52.048;6.092;2022-08-18T01:03:49;12.27;;;7.70;;
55811;SDS011;41742;52.048;6.092;2022-08-18T01:06:36;13.23;;;7.28;;
55811;SDS011;41742;52.048;6.092;2022-08-18T01:09:06;9.40;;;7.57;;
55811;SDS011;41742;52.048;6.092;2022-08-18T01:11:33;9.50;;;7.32;;
55811;SDS011;41742;52.048;6.092;2022-08-18T01:14:01;10.48;;;7.22;;
55811;SDS011;41742;52.048;6.092;2022-08-18T01:16:27;24.75;;;7.65;;
55811;SDS011;41742;52.048;6.092;2022-08-18T01:19:12;11.50;;;6.93;;
55811;SDS011;41742;52.048;6.092;2022-08-18T01:21:58;11.73;;;7.15;;
55811;SDS011;41742;52.048;6.092;2022-08-18T01:24:30;10.13;;;7.38;;
55811;SDS011;41742;52.048;6.092;2022-08-18T01:27:18;10.88;;;7.45;;
55811;SDS011;41742;52.048;6.092;2022-08-18T01:29:45;11.50;;;7.78;;
55811;SDS011;41742;52.048;6.092;2022-08-18T01:32:14;11.00;;;7.57;;
55811;SDS011;41742;52.048;6.092;2022-08-18T01:34:44;14.77;;;7.07;;
55811;SDS011;41742;52.048;6.092;2022-08-18T01:37:13;15.45;;;7.13;;
55811;SDS011;41742;52.048;6.092;2022-08-18T01:39:40;20.27;;;8.07;;
55811;SDS011;41742;52.048;6.092;2022-08-18T01:42:07;9.73;;;7.05;;
55811;SDS011;41742;52.048;6.092;2022-08-18T01:44:33;17.80;;;8.35;;
55811;SDS011;41742;52.048;6.092;2022-08-18T01:46:58;10.43;;;6.88;;
55811;SDS011;41742;52.048;6.092;2022-08-18T01:49:24;12.15;;;7.85;;
55811;SDS011;41742;52.048;6.092;2022-08-18T01:51:52;12.25;;;7.13;;
55811;SDS011;41742;52.048;6.092;2022-08-18T01:54:19;10.20;;;6.60;;
55811;SDS011;41742;52.048;6.092;2022-08-18T01:56:46;9.27;;;7.30;;
55811;SDS011;41742;52.048;6.092;2022-08-18T01:59:13;9.25;;;6.65;;
55811;SDS011;41742;52.048;6.092;2022-08-18T02:01:40;11.25;;;6.50;;
55811;SDS011;41742;52.048;6.092;2022-08-18T02:04:08;8.10;;;6.28;;
55811;SDS011;41742;52.048;6.092;2022-08-18T02:06:36;9.40;;;6.03;;
55811;SDS011;41742;52.048;6.092;2022-08-18T02:09:03;9.50;;;5.90;;
55811;SDS011;41742;52.048;6.092;2022-08-18T02:11:29;8.55;;;6.15;;
55811;SDS011;41742;52.048;6.092;2022-08-18T02:13:54;6.53;;;5.40;;
55811;SDS011;41742;52.048;6.092;2022-08-18T02:16:20;10.00;;;5.50;;
55811;SDS011;41742;52.048;6.092;2022-08-18T02:18:45;8.15;;;5.85;;
55811;SDS011;41742;52.048;6.092;2022-08-18T02:21:14;9.32;;;5.65;;
55811;SDS011;41742;52.048;6.092;2022-08-18T02:23:42;7.35;;;5.50;;
55811;SDS011;41742;52.048;6.092;2022-08-18T02:26:10;13.43;;;6.97;;
55811;SDS011;41742;52.048;6.092;2022-08-18T02:28:39;7.55;;;5.32;;
55811;SDS011;41742;52.048;6.092;2022-08-18T02:31:10;6.60;;;5.40;;
55811;SDS011;41742;52.048;6.092;2022-08-18T02:33:38;7.63;;;5.53;;
55811;SDS011;41742;52.048;6.092;2022-08-18T02:36:05;7.43;;;5.80;;
55811;SDS011;41742;52.048;6.092;2022-08-18T02:38:31;6.47;;;4.82;;
55811;SDS011;41742;52.048;6.092;2022-08-18T02:40:59;8.73;;;5.97;;
55811;SDS011;41742;52.048;6.092;2022-08-18T02:43:26;9.15;;;5.28;;
55811;SDS011;41742;52.048;6.092;2022-08-18T02:45:52;10.23;;;5.85;;
55811;SDS011;41742;52.048;6.092;2022-08-18T02:48:19;9.65;;;5.65;;
55811;SDS011;41742;52.048;6.092;2022-08-18T02:51:12;9.15;;;5.13;;
55811;SDS011;41742;52.048;6.092;2022-08-18T02:53:40;7.20;;;5.50;;
55811;SDS011;41742;52.048;6.092;2022-08-18T02:58:48;7.78;;;5.85;;
55811;SDS011;41742;52.048;6.092;2022-08-18T03:01:17;6.82;;;5.20;;
55811;SDS011;41742;52.048;6.092;2022-08-18T03:03:43;8.25;;;5.13;;
55811;SDS011;41742;52.048;6.092;2022-08-18T03:06:09;9.43;;;5.10;;
55811;SDS011;41742;52.048;6.092;2022-08-18T03:08:35;8.48;;;5.40;;
55811;SDS011;41742;52.048;6.092;2022-08-18T03:11:00;8.10;;;5.22;;
55811;SDS011;41742;52.048;6.092;2022-08-18T03:13:26;10.05;;;5.85;;
55811;SDS011;41742;52.048;6.092;2022-08-18T03:15:52;6.93;;;5.00;;
55811;SDS011;41742;52.048;6.092;2022-08-18T03:18:18;6.78;;;4.85;;
55811;SDS011;41742;52.048;6.092;2022-08-18T03:20:44;6.85;;;5.30;;
55811;SDS011;41742;52.048;6.092;2022-08-18T03:23:10;6.22;;;4.93;;
55811;SDS011;41742;52.048;6.092;2022-08-18T03:25:42;12.52;;;5.40;;
55811;SDS011;41742;52.048;6.092;2022-08-18T03:28:13;6.00;;;5.03;;
55811;SDS011;41742;52.048;6.092;2022-08-18T03:30:39;6.90;;;5.15;;
55811;SDS011;41742;52.048;6.092;2022-08-18T03:33:05;10.60;;;5.38;;
55811;SDS011;41742;52.048;6.092;2022-08-18T03:35:33;7.32;;;5.45;;
55811;SDS011;41742;52.048;6.092;2022-08-18T03:38:00;8.85;;;5.80;;
55811;SDS011;41742;52.048;6.092;2022-08-18T03:40:27;7.40;;;5.55;;
55811;SDS011;41742;52.048;6.092;2022-08-18T03:42:53;9.07;;;5.38;;
55811;SDS011;41742;52.048;6.092;2022-08-18T03:45:18;10.15;;;5.03;;
55811;SDS011;41742;52.048;6.092;2022-08-18T03:47:44;7.80;;;5.05;;
55811;SDS011;41742;52.048;6.092;2022-08-18T03:50:10;7.53;;;5.68;;
55811;SDS011;41742;52.048;6.092;2022-08-18T03:52:36;8.27;;;5.32;;
55811;SDS011;41742;52.048;6.092;2022-08-18T03:55:03;6.70;;;5.35;;
55811;SDS011;41742;52.048;6.092;2022-08-18T03:57:29;7.75;;;5.45;;
55811;SDS011;41742;52.048;6.092;2022-08-18T03:59:56;9.68;;;5.63;;
55811;SDS011;41742;52.048;6.092;2022-08-18T04:02:22;7.90;;;4.65;;
55811;SDS011;41742;52.048;6.092;2022-08-18T04:04:47;11.35;;;5.30;;
55811;SDS011;41742;52.048;6.092;2022-08-18T04:07:13;6.95;;;5.30;;
55811;SDS011;41742;52.048;6.092;2022-08-18T04:09:41;8.27;;;5.55;;
55811;SDS011;41742;52.048;6.092;2022-08-18T04:12:08;8.98;;;5.00;;
55811;SDS011;41742;52.048;6.092;2022-08-18T04:14:38;9.80;;;5.35;;
55811;SDS011;41742;52.048;6.092;2022-08-18T04:17:06;6.93;;;5.22;;
55811;SDS011;41742;52.048;6.092;2022-08-18T04:19:33;7.63;;;5.70;;
55811;SDS011;41742;52.048;6.092;2022-08-18T04:21:59;8.38;;;5.20;;
55811;SDS011;41742;52.048;6.092;2022-08-18T04:24:27;7.20;;;5.15;;
55811;SDS011;41742;52.048;6.092;2022-08-18T04:26:54;5.97;;;5.30;;
55811;SDS011;41742;52.048;6.092;2022-08-18T04:29:21;6.80;;;5.25;;
55811;SDS011;41742;52.048;6.092;2022-08-18T04:31:47;7.35;;;5.32;;
55811;SDS011;41742;52.048;6.092;2022-08-18T04:34:14;6.97;;;5.18;;
55811;SDS011;41742;52.048;6.092;2022-08-18T04:36:40;10.27;;;5.50;;
55811;SDS011;41742;52.048;6.092;2022-08-18T04:39:06;9.43;;;5.57;;
55811;SDS011;41742;52.048;6.092;2022-08-18T04:41:33;11.30;;;5.05;;
55811;SDS011;41742;52.048;6.092;2022-08-18T04:44:02;7.50;;;5.18;;
55811;SDS011;41742;52.048;6.092;2022-08-18T04:46:37;8.93;;;5.25;;
55811;SDS011;41742;52.048;6.092;2022-08-18T04:49:08;8.52;;;5.30;;
55811;SDS011;41742;52.048;6.092;2022-08-18T04:51:35;6.28;;;4.85;;
55811;SDS011;41742;52.048;6.092;2022-08-18T04:54:03;8.55;;;4.90;;
55811;SDS011;41742;52.048;6.092;2022-08-18T04:56:31;9.73;;;5.28;;
55811;SDS011;41742;52.048;6.092;2022-08-18T04:59:00;7.40;;;5.07;;
55811;SDS011;41742;52.048;6.092;2022-08-18T05:01:41;7.88;;;5.50;;
55811;SDS011;41742;52.048;6.092;2022-08-18T05:04:12;6.93;;;4.45;;
55811;SDS011;41742;52.048;6.092;2022-08-18T05:06:40;7.38;;;5.40;;
55811;SDS011;41742;52.048;6.092;2022-08-18T05:09:07;8.57;;;4.85;;
55811;SDS011;41742;52.048;6.092;2022-08-18T05:11:35;10.02;;;5.40;;
55811;SDS011;41742;52.048;6.092;2022-08-18T05:14:02;8.02;;;4.85;;
55811;SDS011;41742;52.048;6.092;2022-08-18T05:16:31;9.40;;;5.50;;
55811;SDS011;41742;52.048;6.092;2022-08-18T05:19:00;7.80;;;4.70;;
55811;SDS011;41742;52.048;6.092;2022-08-18T05:21:33;7.13;;;4.60;;
55811;SDS011;41742;52.048;6.092;2022-08-18T05:24:01;5.55;;;4.43;;
55811;SDS011;41742;52.048;6.092;2022-08-18T05:26:27;9.45;;;5.07;;
55811;SDS011;41742;52.048;6.092;2022-08-18T05:28:53;8.23;;;5.70;;
55811;SDS011;41742;52.048;6.092;2022-08-18T05:31:19;12.45;;;5.25;;
55811;SDS011;41742;52.048;6.092;2022-08-18T05:33:47;8.98;;;5.40;;
55811;SDS011;41742;52.048;6.092;2022-08-18T05:38:52;8.07;;;5.45;;
55811;SDS011;41742;52.048;6.092;2022-08-18T05:41:38;9.38;;;5.38;;
55811;SDS011;41742;52.048;6.092;2022-08-18T05:44:06;7.32;;;5.22;;
55811;SDS011;41742;52.048;6.092;2022-08-18T05:46:40;10.90;;;5.25;;
55811;SDS011;41742;52.048;6.092;2022-08-18T05:49:16;6.88;;;5.20;;
55811;SDS011;41742;52.048;6.092;2022-08-18T05:51:47;6.95;;;5.00;;
55811;SDS011;41742;52.048;6.092;2022-08-18T05:54:44;8.50;;;5.50;;
55811;SDS011;41742;52.048;6.092;2022-08-18T05:57:51;10.60;;;5.55;;
55811;SDS011;41742;52.048;6.092;2022-08-18T06:00:30;7.15;;;4.57;;
55811;SDS011;41742;52.048;6.092;2022-08-18T06:02:57;11.95;;;6.30;;
55811;SDS011;41742;52.048;6.092;2022-08-18T06:05:31;7.22;;;5.40;;
55811;SDS011;41742;52.048;6.092;2022-08-18T06:08:05;12.27;;;6.43;;
55811;SDS011;41742;52.048;6.092;2022-08-18T06:10:34;7.05;;;5.05;;
55811;SDS011;41742;52.048;6.092;2022-08-18T06:13:01;8.45;;;5.22;;
55811;SDS011;41742;52.048;6.092;2022-08-18T06:15:30;11.15;;;5.28;;
55811;SDS011;41742;52.048;6.092;2022-08-18T06:23:34;9.02;;;4.70;;
55811;SDS011;41742;52.048;6.092;2022-08-18T06:26:36;9.65;;;4.82;;
55811;SDS011;41742;52.048;6.092;2022-08-18T06:37:22;6.82;;;4.50;;
55811;SDS011;41742;52.048;6.092;2022-08-18T06:39:57;10.90;;;4.53;;
55811;SDS011;41742;52.048;6.092;2022-08-18T06:42:24;9.90;;;4.65;;
55811;SDS011;41742;52.048;6.092;2022-08-18T06:44:57;9.32;;;4.25;;
55811;SDS011;41742;52.048;6.092;2022-08-18T06:52:59;9.82;;;4.03;;
55811;SDS011;41742;52.048;6.092;2022-08-18T06:55:35;4.40;;;3.50;;
55811;SDS011;41742;52.048;6.092;2022-08-18T07:00:42;4.63;;;3.67;;
55811;SDS011;41742;52.048;6.092;2022-08-18T07:06:02;9.35;;;4.32;;
55811;SDS011;41742;52.048;6.092;2022-08-18T07:08:37;8.03;;;3.83;;
55811;SDS011;41742;52.048;6.092;2022-08-18T07:11:19;9.85;;;4.32;;
55811;SDS011;41742;52.048;6.092;2022-08-18T07:14:11;7.32;;;3.67;;
55811;SDS011;41742;52.048;6.092;2022-08-18T07:16:38;9.60;;;3.75;;
55811;SDS011;41742;52.048;6.092;2022-08-18T07:19:12;5.47;;;3.50;;
55811;SDS011;41742;52.048;6.092;2022-08-18T07:21:41;5.53;;;3.45;;
55811;SDS011;41742;52.048;6.092;2022-08-18T07:29:58;6.05;;;3.50;;
55811;SDS011;41742;52.048;6.092;2022-08-18T07:32:26;15.40;;;3.65;;
55811;SDS011;41742;52.048;6.092;2022-08-18T07:34:59;4.15;;;3.33;;
55811;SDS011;41742;52.048;6.092;2022-08-18T07:37:31;5.13;;;3.72;;
55811;SDS011;41742;52.048;6.092;2022-08-18T07:43:05;8.63;;;3.25;;
55811;SDS011;41742;52.048;6.092;2022-08-18T07:45:39;6.25;;;3.90;;
55811;SDS011;41742;52.048;6.092;2022-08-18T07:59:19;6.72;;;3.22;;
55811;SDS011;41742;52.048;6.092;2022-08-18T08:01:54;5.47;;;3.50;;
55811;SDS011;41742;52.048;6.092;2022-08-18T08:04:29;7.25;;;3.28;;
55811;SDS011;41742;52.048;6.092;2022-08-18T08:07:29;7.97;;;3.10;;
55811;SDS011;41742;52.048;6.092;2022-08-18T08:15:26;5.40;;;3.38;;
55811;SDS011;41742;52.048;6.092;2022-08-18T08:18:14;8.38;;;2.83;;
55811;SDS011;41742;52.048;6.092;2022-08-18T08:20:59;9.80;;;3.33;;
55811;SDS011;41742;52.048;6.092;2022-08-18T08:26:23;4.80;;;2.88;;
55811;SDS011;41742;52.048;6.092;2022-08-18T08:37:08;5.22;;;2.70;;
55811;SDS011;41742;52.048;6.092;2022-08-18T08:39:44;5.68;;;3.22;;
55811;SDS011;41742;52.048;6.092;2022-08-18T08:45:33;3.47;;;2.35;;
55811;SDS011;41742;52.048;6.092;2022-08-18T08:48:13;4.90;;;2.40;;
55811;SDS011;41742;52.048;6.092;2022-08-18T08:50:49;8.45;;;2.63;;
55811;SDS011;41742;52.048;6.092;2022-08-18T08:56:07;2.95;;;2.20;;
55811;SDS011;41742;52.048;6.092;2022-08-18T08:58:42;4.78;;;2.60;;
55811;SDS011;41742;52.048;6.092;2022-08-18T09:01:34;4.85;;;2.50;;
55811;SDS011;41742;52.048;6.092;2022-08-18T09:18:46;7.75;;;1.98;;
55811;SDS011;41742;52.048;6.092;2022-08-18T09:21:28;4.95;;;2.28;;
55811;SDS011;41742;52.048;6.092;2022-08-18T09:35:07;9.95;;;2.10;;
55811;SDS011;41742;52.048;6.092;2022-08-18T09:37:51;2.80;;;1.85;;
55811;SDS011;41742;52.048;6.092;2022-08-18T09:40:50;1.90;;;1.70;;
55811;SDS011;41742;52.048;6.092;2022-08-18T09:43:39;2.58;;;1.30;;
55811;SDS011;41742;52.048;6.092;2022-08-18T09:51:47;5.00;;;1.20;;
55811;SDS011;41742;52.048;6.092;2022-08-18T09:54:15;3.53;;;1.70;;
55811;SDS011;41742;52.048;6.092;2022-08-18T10:04:40;4.43;;;2.03;;
55811;SDS011;41742;52.048;6.092;2022-08-18T10:13:12;3.85;;;1.95;;
55811;SDS011;41742;52.048;6.092;2022-08-18T10:21:24;4.72;;;2.00;;
55811;SDS011;41742;52.048;6.092;2022-08-18T10:24:11;5.47;;;2.00;;
55811;SDS011;41742;52.048;6.092;2022-08-18T10:29:08;7.22;;;2.10;;
55811;SDS011;41742;52.048;6.092;2022-08-18T10:34:39;1.60;;;1.50;;
55811;SDS011;41742;52.048;6.092;2022-08-18T10:37:26;3.90;;;1.58;;
55811;SDS011;41742;52.048;6.092;2022-08-18T10:45:28;1.98;;;1.20;;
55811;SDS011;41742;52.048;6.092;2022-08-18T10:50:31;3.05;;;1.08;;
55811;SDS011;41742;52.048;6.092;2022-08-18T10:53:28;4.82;;;2.20;;
55811;SDS011;41742;52.048;6.092;2022-08-18T10:56:03;4.40;;;1.27;;
55811;SDS011;41742;52.048;6.092;2022-08-18T11:01:57;4.88;;;1.10;;
55811;SDS011;41742;52.048;6.092;2022-08-18T11:04:34;1.52;;;1.27;;
55811;SDS011;41742;52.048;6.092;2022-08-18T11:07:02;2.22;;;1.33;;
55811;SDS011;41742;52.048;6.092;2022-08-18T11:09:39;4.43;;;1.33;;
55811;SDS011;41742;52.048;6.092;2022-08-18T11:12:07;2.67;;;1.20;;
55811;SDS011;41742;52.048;6.092;2022-08-18T11:14:57;4.90;;;1.80;;
55811;SDS011;41742;52.048;6.092;2022-08-18T11:20:10;2.42;;;1.40;;
55811;SDS011;41742;52.048;6.092;2022-08-18T11:22:43;6.20;;;1.92;;
55811;SDS011;41742;52.048;6.092;2022-08-18T11:25:38;3.10;;;1.52;;
55811;SDS011;41742;52.048;6.092;2022-08-18T11:28:16;2.72;;;1.42;;
55811;SDS011;41742;52.048;6.092;2022-08-18T11:30:44;3.90;;;1.55;;
55811;SDS011;41742;52.048;6.092;2022-08-18T11:33:15;2.17;;;1.10;;
55811;SDS011;41742;52.048;6.092;2022-08-18T11:38:14;1.42;;;1.17;;
55811;SDS011;41742;52.048;6.092;2022-08-18T11:40:43;1.20;;;1.05;;
55811;SDS011;41742;52.048;6.092;2022-08-18T11:43:15;2.72;;;1.10;;
55811;SDS011;41742;52.048;6.092;2022-08-18T11:51:00;2.95;;;1.58;;
55811;SDS011;41742;52.048;6.092;2022-08-18T11:53:38;2.30;;;1.40;;
55811;SDS011;41742;52.048;6.092;2022-08-18T11:56:13;2.13;;;1.55;;
55811;SDS011;41742;52.048;6.092;2022-08-18T12:09:31;5.03;;;1.80;;
55811;SDS011;41742;52.048;6.092;2022-08-18T12:17:19;2.88;;;1.98;;
55811;SDS011;41742;52.048;6.092;2022-08-18T12:19:45;3.28;;;1.55;;
55811;SDS011;41742;52.048;6.092;2022-08-18T12:22:14;1.75;;;1.33;;
55811;SDS011;41742;52.048;6.092;2022-08-18T12:24:42;4.20;;;1.77;;
55811;SDS011;41742;52.048;6.092;2022-08-18T12:27:07;2.25;;;1.27;;
55811;SDS011;41742;52.048;6.092;2022-08-18T12:29:33;3.33;;;1.58;;
55811;SDS011;41742;52.048;6.092;2022-08-18T12:31:59;2.92;;;1.30;;
55811;SDS011;41742;52.048;6.092;2022-08-18T12:34:24;2.05;;;1.80;;
55811;SDS011;41742;52.048;6.092;2022-08-18T12:36:51;1.42;;;1.27;;
55811;SDS011;41742;52.048;6.092;2022-08-18T12:39:22;4.70;;;1.70;;
55811;SDS011;41742;52.048;6.092;2022-08-18T12:41:48;3.17;;;1.50;;
55811;SDS011;41742;52.048;6.092;2022-08-18T12:44:14;3.67;;;1.63;;
55811;SDS011;41742;52.048;6.092;2022-08-18T12:46:40;1.25;;;1.10;;
55811;SDS011;41742;52.048;6.092;2022-08-18T12:49:08;1.92;;;1.10;;
55811;SDS011;41742;52.048;6.092;2022-08-18T12:51:45;3.20;;;1.20;;
55811;SDS011;41742;52.048;6.092;2022-08-18T12:54:12;4.15;;;1.50;;
55811;SDS011;41742;52.048;6.092;2022-08-18T12:56:38;2.88;;;1.33;;
55811;SDS011;41742;52.048;6.092;2022-08-18T12:59:06;4.78;;;1.23;;
55811;SDS011;41742;52.048;6.092;2022-08-18T13:01:33;1.83;;;1.17;;
55811;SDS011;41742;52.048;6.092;2022-08-18T13:04:01;2.50;;;1.88;;
55811;SDS011;41742;52.048;6.092;2022-08-18T13:06:27;2.58;;;1.35;;
55811;SDS011;41742;52.048;6.092;2022-08-18T13:08:55;2.13;;;1.13;;
55811;SDS011;41742;52.048;6.092;2022-08-18T13:11:21;1.10;;;1.00;;
55811;SDS011;41742;52.048;6.092;2022-08-18T13:13:47;3.38;;;1.52;;
55811;SDS011;41742;52.048;6.092;2022-08-18T13:16:14;3.22;;;1.30;;
55811;SDS011;41742;52.048;6.092;2022-08-18T13:18:40;2.35;;;1.00;;
55811;SDS011;41742;52.048;6.092;2022-08-18T13:21:07;1.67;;;1.20;;
55811;SDS011;41742;52.048;6.092;2022-08-18T13:23:34;2.70;;;1.15;;
55811;SDS011;41742;52.048;6.092;2022-08-18T13:26:00;3.80;;;1.17;;
55811;SDS011;41742;52.048;6.092;2022-08-18T13:28:28;2.97;;;1.40;;
55811;SDS011;41742;52.048;6.092;2022-08-18T13:30:54;1.45;;;1.20;;
55811;SDS011;41742;52.048;6.092;2022-08-18T13:33:20;2.20;;;1.20;;
55811;SDS011;41742;52.048;6.092;2022-08-18T13:35:46;2.55;;;1.33;;
55811;SDS011;41742;52.048;6.092;2022-08-18T13:38:13;2.03;;;1.00;;
55811;SDS011;41742;52.048;6.092;2022-08-18T13:40:42;2.58;;;1.42;;
55811;SDS011;41742;52.048;6.092;2022-08-18T13:43:09;2.45;;;1.08;;
55811;SDS011;41742;52.048;6.092;2022-08-18T13:45:35;4.28;;;1.45;;
55811;SDS011;41742;52.048;6.092;2022-08-18T13:48:01;3.45;;;1.55;;
55811;SDS011;41742;52.048;6.092;2022-08-18T13:50:27;7.22;;;1.33;;
55811;SDS011;41742;52.048;6.092;2022-08-18T13:52:52;3.10;;;1.50;;
55811;SDS011;41742;52.048;6.092;2022-08-18T13:55:18;2.15;;;1.40;;
55811;SDS011;41742;52.048;6.092;2022-08-18T13:57:45;2.33;;;1.23;;
55811;SDS011;41742;52.048;6.092;2022-08-18T14:00:17;1.60;;;1.10;;
55811;SDS011;41742;52.048;6.092;2022-08-18T14:02:48;1.20;;;1.10;;
55811;SDS011;41742;52.048;6.092;2022-08-18T14:05:17;3.33;;;1.40;;
55811;SDS011;41742;52.048;6.092;2022-08-18T14:07:44;2.28;;;1.33;;
55811;SDS011;41742;52.048;6.092;2022-08-18T14:10:10;5.82;;;1.13;;
55811;SDS011;41742;52.048;6.092;2022-08-18T14:12:37;1.90;;;1.00;;
55811;SDS011;41742;52.048;6.092;2022-08-18T14:15:05;1.85;;;1.05;;
55811;SDS011;41742;52.048;6.092;2022-08-18T14:17:33;3.63;;;1.17;;
55811;SDS011;41742;52.048;6.092;2022-08-18T14:20:00;13.35;;;1.77;;
55811;SDS011;41742;52.048;6.092;2022-08-18T14:22:44;6.43;;;1.33;;
55811;SDS011;41742;52.048;6.092;2022-08-18T14:25:29;2.72;;;1.48;;
55811;SDS011;41742;52.048;6.092;2022-08-18T14:28:13;3.55;;;1.15;;
55811;SDS011;41742;52.048;6.092;2022-08-18T14:30:42;2.97;;;1.10;;
55811;SDS011;41742;52.048;6.092;2022-08-18T14:33:09;4.10;;;1.40;;
55811;SDS011;41742;52.048;6.092;2022-08-18T14:35:35;2.35;;;1.42;;
55811;SDS011;41742;52.048;6.092;2022-08-18T14:38:01;1.23;;;1.10;;
55811;SDS011;41742;52.048;6.092;2022-08-18T14:40:30;2.33;;;1.42;;
55811;SDS011;41742;52.048;6.092;2022-08-18T14:42:57;2.17;;;1.40;;
55811;SDS011;41742;52.048;6.092;2022-08-18T14:45:23;2.10;;;1.30;;
55811;SDS011;41742;52.048;6.092;2022-08-18T14:47:50;4.50;;;1.67;;
55811;SDS011;41742;52.048;6.092;2022-08-18T14:50:17;4.10;;;1.30;;
55811;SDS011;41742;52.048;6.092;2022-08-18T14:52:44;2.17;;;1.40;;
55811;SDS011;41742;52.048;6.092;2022-08-18T14:55:11;3.60;;;1.30;;
55811;SDS011;41742;52.048;6.092;2022-08-18T14:57:37;2.92;;;1.10;;
55811;SDS011;41742;52.048;6.092;2022-08-18T15:00:04;1.25;;;1.10;;
55811;SDS011;41742;52.048;6.092;2022-08-18T15:02:37;1.58;;;1.45;;
55811;SDS011;41742;52.048;6.092;2022-08-18T15:05:04;3.67;;;1.08;;
55811;SDS011;41742;52.048;6.092;2022-08-18T15:07:32;1.55;;;1.10;;
55811;SDS011;41742;52.048;6.092;2022-08-18T15:10:02;3.22;;;1.33;;
55811;SDS011;41742;52.048;6.092;2022-08-18T15:12:29;3.33;;;1.30;;
55811;SDS011;41742;52.048;6.092;2022-08-18T15:14:54;3.17;;;1.50;;
55811;SDS011;41742;52.048;6.092;2022-08-18T15:17:20;2.17;;;1.30;;
55811;SDS011;41742;52.048;6.092;2022-08-18T15:19:45;2.95;;;1.27;;
55811;SDS011;41742;52.048;6.092;2022-08-18T15:22:12;3.40;;;1.52;;
55811;SDS011;41742;52.048;6.092;2022-08-18T15:24:56;3.50;;;1.38;;
55811;SDS011;41742;52.048;6.092;2022-08-18T15:27:40;1.73;;;1.10;;
55811;SDS011;41742;52.048;6.092;2022-08-18T15:30:07;2.22;;;1.30;;
55811;SDS011;41742;52.048;6.092;2022-08-18T15:32:36;2.03;;;1.20;;
55811;SDS011;41742;52.048;6.092;2022-08-18T15:35:03;3.65;;;1.50;;
55811;SDS011;41742;52.048;6.092;2022-08-18T15:37:32;2.25;;;1.35;;
55811;SDS011;41742;52.048;6.092;2022-08-18T15:40:00;2.25;;;1.08;;
55811;SDS011;41742;52.048;6.092;2022-08-18T15:42:36;1.67;;;1.05;;
55811;SDS011;41742;52.048;6.092;2022-08-18T15:45:06;1.05;;;1.02;;
55811;SDS011;41742;52.048;6.092;2022-08-18T15:47:32;3.05;;;1.13;;
55811;SDS011;41742;52.048;6.092;2022-08-18T15:49:59;1.90;;;1.20;;
55811;SDS011;41742;52.048;6.092;2022-08-18T15:52:25;2.63;;;1.17;;
55811;SDS011;41742;52.048;6.092;2022-08-18T15:54:50;2.97;;;1.35;;
55811;SDS011;41742;52.048;6.092;2022-08-18T15:57:17;1.90;;;1.10;;
55811;SDS011;41742;52.048;6.092;2022-08-18T15:59:42;1.88;;;1.00;;
55811;SDS011;41742;52.048;6.092;2022-08-18T16:02:08;5.97;;;1.33;;
55811;SDS011;41742;52.048;6.092;2022-08-18T16:04:34;2.55;;;1.10;;
55811;SDS011;41742;52.048;6.092;2022-08-18T16:07:02;2.10;;;1.20;;
55811;SDS011;41742;52.048;6.092;2022-08-18T16:09:28;7.20;;;1.40;;
55811;SDS011;41742;52.048;6.092;2022-08-18T16:11:54;2.70;;;1.10;;
55811;SDS011;41742;52.048;6.092;2022-08-18T16:14:21;1.20;;;1.10;;
55811;SDS011;41742;52.048;6.092;2022-08-18T16:16:46;1.58;;;1.20;;
55811;SDS011;41742;52.048;6.092;2022-08-18T16:19:12;1.15;;;0.65;;
55811;SDS011;41742;52.048;6.092;2022-08-18T16:21:37;2.13;;;0.98;;
55811;SDS011;41742;52.048;6.092;2022-08-18T16:24:04;5.75;;;1.30;;
55811;SDS011;41742;52.048;6.092;2022-08-18T16:26:30;1.95;;;1.10;;
55811;SDS011;41742;52.048;6.092;2022-08-18T16:28:56;1.00;;;0.90;;
55811;SDS011;41742;52.048;6.092;2022-08-18T16:31:22;5.20;;;0.98;;
55811;SDS011;41742;52.048;6.092;2022-08-18T16:33:52;1.25;;;1.02;;
55811;SDS011;41742;52.048;6.092;2022-08-18T16:36:20;2.28;;;1.30;;
55811;SDS011;41742;52.048;6.092;2022-08-18T16:38:49;1.88;;;1.00;;
55811;SDS011;41742;52.048;6.092;2022-08-18T16:41:15;1.75;;;1.00;;
55811;SDS011;41742;52.048;6.092;2022-08-18T16:43:42;2.25;;;0.90;;
55811;SDS011;41742;52.048;6.092;2022-08-18T16:46:11;1.42;;;0.98;;
55811;SDS011;41742;52.048;6.092;2022-08-18T16:48:45;1.73;;;1.20;;
55811;SDS011;41742;52.048;6.092;2022-08-18T16:51:15;3.53;;;1.20;;
55811;SDS011;41742;52.048;6.092;2022-08-18T16:53:43;2.92;;;1.40;;
55811;SDS011;41742;52.048;6.092;2022-08-18T16:56:14;1.60;;;1.10;;
55811;SDS011;41742;52.048;6.092;2022-08-18T16:58:41;1.25;;;0.90;;
55811;SDS011;41742;52.048;6.092;2022-08-18T17:01:25;3.38;;;1.00;;
55811;SDS011;41742;52.048;6.092;2022-08-18T17:04:11;1.83;;;1.10;;
55811;SDS011;41742;52.048;6.092;2022-08-18T17:06:39;2.20;;;1.05;;
55811;SDS011;41742;52.048;6.092;2022-08-18T17:09:05;0.95;;;0.80;;
55811;SDS011;41742;52.048;6.092;2022-08-18T17:11:31;3.25;;;1.58;;
55811;SDS011;41742;52.048;6.092;2022-08-18T17:13:58;2.35;;;1.20;;
55811;SDS011;41742;52.048;6.092;2022-08-18T17:16:26;3.05;;;1.13;;
55811;SDS011;41742;52.048;6.092;2022-08-18T17:18:53;2.47;;;1.10;;
55811;SDS011;41742;52.048;6.092;2022-08-18T17:21:21;2.08;;;0.80;;
55811;SDS011;41742;52.048;6.092;2022-08-18T17:23:50;1.65;;;0.90;;
55811;SDS011;41742;52.048;6.092;2022-08-18T17:26:19;1.63;;;1.10;;
55811;SDS011;41742;52.048;6.092;2022-08-18T17:29:03;2.92;;;2.00;;
55811;SDS011;41742;52.048;6.092;2022-08-18T17:31:34;3.00;;;1.15;;
55811;SDS011;41742;52.048;6.092;2022-08-18T17:34:05;4.00;;;1.08;;
55811;SDS011;41742;52.048;6.092;2022-08-18T17:36:40;0.82;;;0.82;;
55811;SDS011;41742;52.048;6.092;2022-08-18T17:39:12;1.33;;;1.02;;
55811;SDS011;41742;52.048;6.092;2022-08-18T17:41:41;1.67;;;0.95;;
55811;SDS011;41742;52.048;6.092;2022-08-18T17:44:26;1.80;;;0.90;;
55811;SDS011;41742;52.048;6.092;2022-08-18T17:46:51;4.50;;;1.15;;
55811;SDS011;41742;52.048;6.092;2022-08-18T17:49:25;0.70;;;0.70;;
55811;SDS011;41742;52.048;6.092;2022-08-18T17:52:15;1.98;;;0.93;;
55811;SDS011;41742;52.048;6.092;2022-08-18T17:54:44;1.58;;;0.73;;
55811;SDS011;41742;52.048;6.092;2022-08-18T17:57:15;1.02;;;0.75;;